createdAt,value
2019-03-15T00:01:13.334Z,71.50
2019-03-15T00:03:42.284Z,72.70
2019-03-15T00:06:10.764Z,70.70
2019-03-15T00:08:39.440Z,70.80
2019-03-15T00:11:07.478Z,72.00
2019-03-15T00:13:35.657Z,71.20
2019-03-15T00:16:04.337Z,70.80
2019-03-15T00:18:32.446Z,71.40
2019-03-15T00:21:00.710Z,71.30
2019-03-15T00:23:30.037Z,72.00
2019-03-15T00:25:58.110Z,71.40
2019-03-15T00:28:26.352Z,71.20
2019-03-15T00:30:54.413Z,70.60
2019-03-15T00:33:22.392Z,71.60
2019-03-15T00:35:50.715Z,70.90
2019-03-15T00:38:18.753Z,72.50
2019-03-15T00:40:47.846Z,71.10
2019-03-15T00:43:16.002Z,70.90
2019-03-15T00:45:44.318Z,69.90
2019-03-15T00:48:12.344Z,71.90
2019-03-15T00:50:40.453Z,70.80
2019-03-15T00:53:08.648Z,71.60
2019-03-15T00:55:36.737Z,71.10
2019-03-15T00:58:07.890Z,70.00
2019-03-15T01:00:35.975Z,70.90
2019-03-15T01:03:04.169Z,71.40
2019-03-15T01:05:33.624Z,71.00
2019-03-15T01:08:01.661Z,71.10
2019-03-15T01:10:30.271Z,70.90
2019-03-15T01:12:58.639Z,71.80
2019-03-15T01:15:26.847Z,70.80
2019-03-15T01:17:55.055Z,69.80
2019-03-15T01:20:23.364Z,73.60
2019-03-15T01:22:51.537Z,70.40
2019-03-15T01:25:19.712Z,70.30
2019-03-15T01:27:47.860Z,70.40
2019-03-15T01:30:15.870Z,71.60
2019-03-15T01:32:43.941Z,71.50
2019-03-15T01:35:12.080Z,70.20
2019-03-15T01:37:40.132Z,71.50
2019-03-15T01:40:08.126Z,70.50
2019-03-15T01:42:36.204Z,71.60
2019-03-15T01:45:04.415Z,71.60
2019-03-15T01:47:32.638Z,71.20
2019-03-15T01:50:00.599Z,70.30
2019-03-15T01:52:28.668Z,72.40
2019-03-15T01:54:56.871Z,70.90
2019-03-15T01:57:24.849Z,71.30
2019-03-15T01:59:52.946Z,70.10
2019-03-15T02:02:21.158Z,71.70
2019-03-15T02:04:49.114Z,71.70
2019-03-15T02:07:17.298Z,71.50
2019-03-15T02:09:45.319Z,71.60
2019-03-15T02:12:13.620Z,70.20
2019-03-15T02:14:42.127Z,70.50
2019-03-15T02:17:10.363Z,69.80
2019-03-15T02:19:38.404Z,70.50
2019-03-15T02:22:06.510Z,71.30
2019-03-15T02:24:36.486Z,70.60
2019-03-15T02:27:04.201Z,70.50
2019-03-15T02:29:32.437Z,70.00
2019-03-15T02:32:00.633Z,70.20
2019-03-15T02:34:28.751Z,69.60
2019-03-15T02:36:56.875Z,70.00
2019-03-15T02:39:25.206Z,69.20
2019-03-15T02:41:53.306Z,69.70
2019-03-15T02:44:21.432Z,69.30
2019-03-15T02:46:49.595Z,70.20
2019-03-15T02:49:18.009Z,70.20
2019-03-15T02:51:46.413Z,68.90
2019-03-15T02:54:17.329Z,70.00
2019-03-15T02:56:45.313Z,70.90
2019-03-15T02:59:13.609Z,69.50
2019-03-15T03:01:41.832Z,71.00
2019-03-15T03:04:09.890Z,69.70
2019-03-15T03:06:38.041Z,69.40
2019-03-15T03:09:08.115Z,70.60
2019-03-15T03:11:36.265Z,69.30
2019-03-15T03:14:04.578Z,71.10
2019-03-15T03:16:33.676Z,69.50
2019-03-15T03:19:02.065Z,70.50
2019-03-15T03:21:30.346Z,70.60
2019-03-15T03:23:58.426Z,68.50
2019-03-15T03:26:26.573Z,68.70
2019-03-15T03:28:55.897Z,69.60
2019-03-15T03:31:24.481Z,68.40
2019-03-15T03:33:52.755Z,68.80
2019-03-15T03:36:20.695Z,69.10
2019-03-15T03:38:48.953Z,68.50
2019-03-15T03:41:17.155Z,68.50
2019-03-15T03:43:45.391Z,69.80
2019-03-15T03:46:13.329Z,69.00
2019-03-15T03:48:41.959Z,69.70
2019-03-15T03:51:11.345Z,68.80
2019-03-15T03:53:39.356Z,69.30
2019-03-15T03:56:12.391Z,68.40
2019-03-15T03:58:40.478Z,69.10
2019-03-15T04:01:08.407Z,69.50
2019-03-15T04:03:36.888Z,69.30
2019-03-15T04:06:05.146Z,68.10
2019-03-15T04:08:33.403Z,68.70
2019-03-15T04:11:01.680Z,68.50
2019-03-15T04:13:29.712Z,69.10
2019-03-15T04:15:57.790Z,69.70
2019-03-15T04:18:26.034Z,68.50
2019-03-15T04:20:54.387Z,68.40
2019-03-15T04:23:22.592Z,68.20
2019-03-15T04:25:50.867Z,67.00
2019-03-15T04:28:19.916Z,69.50
2019-03-15T04:30:48.061Z,68.20
2019-03-15T04:33:16.499Z,67.10
2019-03-15T04:35:44.829Z,68.40
2019-03-15T04:38:12.803Z,68.30
2019-03-15T04:40:41.109Z,68.20
2019-03-15T04:43:09.425Z,68.60
2019-03-15T04:45:37.406Z,69.70
2019-03-15T04:48:05.633Z,69.40
2019-03-15T04:50:34.734Z,67.70
2019-03-15T04:53:03.505Z,68.60
2019-03-15T04:55:31.890Z,67.90
2019-03-15T04:58:01.111Z,68.80
2019-03-15T05:00:29.615Z,68.20
2019-03-15T05:02:57.850Z,68.50
2019-03-15T05:05:26.480Z,67.80
2019-03-15T05:07:54.605Z,67.70
2019-03-15T05:10:22.718Z,67.80
2019-03-15T05:12:50.785Z,68.60
2019-03-15T05:15:19.406Z,68.00
2019-03-15T05:17:47.470Z,68.20
2019-03-15T05:20:21.037Z,67.80
2019-03-15T05:22:47.974Z,67.80
2019-03-15T05:25:15.993Z,67.90
2019-03-15T05:27:43.957Z,68.30
2019-03-15T05:30:14.954Z,67.40
2019-03-15T05:32:42.972Z,67.90
2019-03-15T05:35:10.945Z,67.20
2019-03-15T05:37:40.332Z,68.00
2019-03-15T05:40:09.285Z,67.90
2019-03-15T05:42:37.336Z,68.20
2019-03-15T05:45:05.919Z,68.40
2019-03-15T05:47:33.905Z,67.00
2019-03-15T05:50:02.393Z,68.60
2019-03-15T05:52:30.562Z,67.40
2019-03-15T05:54:58.677Z,67.30
2019-03-15T05:57:26.760Z,67.60
2019-03-15T05:59:55.093Z,67.90
2019-03-15T06:02:23.158Z,67.10
2019-03-15T06:04:51.099Z,68.30
2019-03-15T06:07:19.514Z,67.40
2019-03-15T06:09:47.574Z,67.70
2019-03-15T06:12:17.232Z,68.10
2019-03-15T06:14:46.865Z,68.50
2019-03-15T06:17:14.862Z,68.20
2019-03-15T06:19:42.902Z,68.40
2019-03-15T06:22:11.830Z,68.20
2019-03-15T06:24:40.009Z,68.20
2019-03-15T06:27:07.944Z,67.90
2019-03-15T06:29:36.055Z,68.80
2019-03-15T06:32:04.415Z,68.20
2019-03-15T06:34:32.640Z,68.80
2019-03-15T06:37:00.724Z,67.80
2019-03-15T06:39:29.911Z,68.40
2019-03-15T06:41:57.958Z,68.30
2019-03-15T06:44:27.189Z,67.80
2019-03-15T06:46:55.190Z,68.60
2019-03-15T06:49:23.499Z,67.50
2019-03-15T06:51:51.538Z,67.80
2019-03-15T06:54:19.823Z,68.30
2019-03-15T06:56:48.016Z,68.60
2019-03-15T06:59:16.179Z,67.30
2019-03-15T07:01:44.283Z,68.00
2019-03-15T07:04:12.882Z,67.50
2019-03-15T07:06:40.869Z,68.10
2019-03-15T07:09:11.691Z,67.40
2019-03-15T07:11:39.736Z,67.80
2019-03-15T07:14:07.758Z,68.60
2019-03-15T07:16:38.173Z,67.50
2019-03-15T07:19:06.514Z,67.30
2019-03-15T07:21:36.767Z,67.30
2019-03-15T07:24:06.831Z,67.80
2019-03-15T07:26:34.983Z,67.70
2019-03-15T07:29:03.154Z,67.80
2019-03-15T07:31:31.706Z,67.40
2019-03-15T07:34:03.183Z,67.80
2019-03-15T07:36:31.595Z,67.70
2019-03-15T07:38:59.649Z,67.80
2019-03-15T07:41:27.656Z,67.80
2019-03-15T07:43:56.552Z,68.30
2019-03-15T07:46:25.926Z,67.70
2019-03-15T07:48:53.869Z,67.80
2019-03-15T07:51:23.041Z,67.90
2019-03-15T07:53:52.484Z,68.30
2019-03-15T07:56:20.595Z,67.70
2019-03-15T07:58:48.897Z,67.70
2019-03-15T08:01:17.394Z,67.90
2019-03-15T08:03:45.379Z,68.00
2019-03-15T08:06:13.706Z,68.20
2019-03-15T08:08:42.344Z,67.30
2019-03-15T08:11:10.528Z,67.80
2019-03-15T08:13:38.949Z,67.00
2019-03-15T08:16:07.229Z,68.00
2019-03-15T08:18:35.462Z,68.60
2019-03-15T08:21:04.379Z,67.70
2019-03-15T08:23:35.636Z,68.00
2019-03-15T08:26:03.993Z,68.30
2019-03-15T08:28:31.951Z,69.00
2019-03-15T08:31:00.073Z,68.60
2019-03-15T08:33:28.159Z,67.90
2019-03-15T08:35:56.430Z,67.80
2019-03-15T08:38:24.452Z,67.70
2019-03-15T08:40:52.606Z,68.50
2019-03-15T08:43:20.875Z,68.30
2019-03-15T08:45:49.148Z,68.50
2019-03-15T08:48:18.192Z,68.50
2019-03-15T08:50:46.975Z,68.90
2019-03-15T08:53:22.428Z,69.20
2019-03-15T08:55:50.571Z,68.20
2019-03-15T08:58:21.916Z,67.80
2019-03-15T09:00:48.176Z,68.20
2019-03-15T09:03:27.313Z,68.80
2019-03-15T09:05:47.124Z,68.20
2019-03-15T09:08:15.959Z,67.60
2019-03-15T09:10:44.368Z,67.40
2019-03-15T09:13:12.442Z,68.60
2019-03-15T09:15:40.777Z,68.40
2019-03-15T09:18:08.855Z,68.80
2019-03-15T09:20:37.236Z,68.80
2019-03-15T09:23:05.379Z,68.40
2019-03-15T09:25:33.597Z,69.50
2019-03-15T09:28:01.810Z,68.70
2019-03-15T09:30:30.595Z,69.70
2019-03-15T09:32:58.804Z,68.20
2019-03-15T09:35:26.904Z,68.50
2019-03-15T09:37:56.472Z,68.40
2019-03-15T09:40:25.850Z,68.60
2019-03-15T09:42:54.047Z,68.70
2019-03-15T09:45:22.207Z,69.50
2019-03-15T09:47:50.757Z,68.50
2019-03-15T09:50:33.825Z,68.80
2019-03-15T09:52:48.598Z,69.90
2019-03-15T09:55:17.195Z,69.30
2019-03-15T09:57:45.192Z,69.00
2019-03-15T10:00:13.240Z,68.70
2019-03-15T10:02:41.437Z,69.10
2019-03-15T10:05:11.412Z,69.70
2019-03-15T10:07:39.135Z,68.80
2019-03-15T10:10:13.350Z,68.90
2019-03-15T10:12:38.297Z,68.70
2019-03-15T10:15:07.969Z,69.60
2019-03-15T10:17:36.177Z,69.40
2019-03-15T10:20:04.510Z,68.80
2019-03-15T10:22:32.562Z,70.00
2019-03-15T10:25:00.727Z,68.70
2019-03-15T10:27:28.981Z,68.70
2019-03-15T10:29:57.341Z,70.10
2019-03-15T10:32:25.954Z,70.00
2019-03-15T10:34:53.919Z,68.60
2019-03-15T10:37:22.152Z,69.30
2019-03-15T10:39:50.243Z,68.40
2019-03-15T10:42:18.659Z,68.40
2019-03-15T10:44:46.790Z,69.40
2019-03-15T10:47:15.164Z,69.70
2019-03-15T10:49:43.426Z,70.70
2019-03-15T10:52:12.123Z,69.30
2019-03-15T10:54:40.249Z,68.70
2019-03-15T10:57:08.407Z,70.00
2019-03-15T10:59:36.727Z,69.90
2019-03-15T11:02:05.537Z,70.10
2019-03-15T11:04:33.857Z,69.60
2019-03-15T11:07:02.556Z,69.90
2019-03-15T11:09:31.515Z,70.10
2019-03-15T11:11:59.791Z,69.10
2019-03-15T11:14:28.135Z,70.10
2019-03-15T11:16:56.361Z,70.10
2019-03-15T11:19:24.442Z,70.30
2019-03-15T11:21:52.450Z,68.60
2019-03-15T11:24:20.763Z,70.60
2019-03-15T11:26:49.091Z,69.30
2019-03-15T11:29:17.236Z,69.70
2019-03-15T11:31:45.565Z,70.80
2019-03-15T11:34:13.746Z,71.10
2019-03-15T11:36:43.169Z,68.10
2019-03-15T11:39:12.740Z,68.60
2019-03-15T11:41:40.871Z,69.90
2019-03-15T11:44:09.699Z,69.50
2019-03-15T11:46:38.217Z,69.90
2019-03-15T11:49:06.379Z,70.20
2019-03-15T11:51:34.434Z,70.50
2019-03-15T11:54:02.620Z,68.60
2019-03-15T11:56:31.231Z,70.40
2019-03-15T11:58:59.465Z,69.70
2019-03-15T12:01:27.780Z,69.90
2019-03-15T12:03:55.928Z,69.60
2019-03-15T12:06:23.892Z,69.10
2019-03-15T12:08:52.063Z,69.60
2019-03-15T12:11:20.354Z,68.70
2019-03-15T12:13:48.486Z,70.50
2019-03-15T12:16:16.563Z,69.10
2019-03-15T12:18:44.612Z,69.80
2019-03-15T12:21:12.638Z,69.50
2019-03-15T12:23:40.734Z,71.20
2019-03-15T12:26:10.032Z,70.30
2019-03-15T12:28:38.226Z,69.30
2019-03-15T12:31:06.268Z,70.40
2019-03-15T12:33:34.309Z,71.10
2019-03-15T12:36:03.391Z,70.90
2019-03-15T12:38:31.741Z,71.10
2019-03-15T12:40:59.821Z,70.90
2019-03-15T12:43:28.105Z,71.60
2019-03-15T12:45:56.226Z,72.50
2019-03-15T12:48:24.351Z,73.30
2019-03-15T12:50:52.388Z,72.10
2019-03-15T12:53:20.566Z,71.10
2019-03-15T12:55:48.670Z,73.30
2019-03-15T12:58:16.681Z,71.50
2019-03-15T13:00:45.080Z,70.30
2019-03-15T13:03:13.216Z,72.60
2019-03-15T13:05:41.300Z,73.00
2019-03-15T13:08:10.058Z,70.70
2019-03-15T13:10:38.043Z,70.80
2019-03-15T13:13:06.185Z,73.60
2019-03-15T13:15:34.532Z,71.60
2019-03-15T13:18:02.643Z,71.30
2019-03-15T13:20:30.688Z,71.40
2019-03-15T13:22:58.951Z,72.50
2019-03-15T13:25:26.981Z,71.80
2019-03-15T13:27:55.593Z,71.00
2019-03-15T13:30:23.659Z,73.40
2019-03-15T13:32:52.510Z,71.10
2019-03-15T13:35:20.626Z,70.90
2019-03-15T13:37:48.764Z,72.70
2019-03-15T13:40:16.728Z,72.20
2019-03-15T13:42:45.048Z,73.00
2019-03-15T13:45:13.220Z,71.60
2019-03-15T13:47:41.301Z,71.00
2019-03-15T13:50:09.529Z,72.10
2019-03-15T13:52:37.911Z,71.70
2019-03-15T13:55:11.071Z,71.70
2019-03-15T13:57:39.373Z,73.30
2019-03-15T14:00:07.459Z,72.80
2019-03-15T14:02:35.743Z,73.30
2019-03-15T14:05:03.959Z,72.40
2019-03-15T14:07:33.103Z,73.10
2019-03-15T14:10:03.932Z,71.50
2019-03-15T14:12:30.879Z,70.70
2019-03-15T14:14:59.143Z,73.20
2019-03-15T14:17:28.574Z,75.00
2019-03-15T14:19:57.283Z,73.30
2019-03-15T14:22:25.362Z,73.50
2019-03-15T14:24:53.658Z,74.10
2019-03-15T14:27:32.533Z,74.50
2019-03-15T14:29:51.548Z,75.90
2019-03-15T14:32:19.701Z,76.70
2019-03-15T14:34:47.725Z,74.10
2019-03-15T14:37:18.643Z,75.50
2019-03-15T14:39:46.889Z,73.10
2019-03-15T14:42:15.461Z,74.20
2019-03-15T14:44:43.652Z,73.50
2019-03-15T14:47:11.800Z,75.20
2019-03-15T14:49:43.173Z,73.90
2019-03-15T14:52:14.267Z,73.30
2019-03-15T14:54:42.574Z,73.00
2019-03-15T14:57:12.610Z,74.10
2019-03-15T14:59:43.496Z,73.40
2019-03-15T15:02:12.047Z,73.30
2019-03-15T15:04:40.044Z,74.00
2019-03-15T15:07:08.025Z,74.40
2019-03-15T15:09:36.204Z,74.80
2019-03-15T15:12:04.350Z,74.60
2019-03-15T15:14:32.310Z,74.90
2019-03-15T15:17:00.629Z,74.70
2019-03-15T15:19:28.930Z,75.80
2019-03-15T15:21:57.034Z,74.90
2019-03-15T15:24:25.366Z,74.40
2019-03-15T15:26:53.613Z,75.40
2019-03-15T15:29:22.203Z,75.60
2019-03-15T15:31:50.831Z,75.70
2019-03-15T15:34:21.545Z,75.70
2019-03-15T15:36:48.431Z,75.80
2019-03-15T15:39:16.842Z,76.30
2019-03-15T15:41:45.099Z,75.70
2019-03-15T15:44:13.256Z,75.90
2019-03-15T15:46:44.064Z,77.00
2019-03-15T15:49:12.142Z,76.70
2019-03-15T15:51:40.179Z,77.20
2019-03-15T15:54:08.538Z,76.40
2019-03-15T15:56:36.610Z,77.30
2019-03-15T15:59:06.843Z,76.40
2019-03-15T16:01:36.036Z,77.60
2019-03-15T16:04:04.459Z,77.80
2019-03-15T16:09:16.662Z,77.10
2019-03-15T16:11:47.285Z,77.20
2019-03-15T16:14:15.417Z,76.50
2019-03-15T16:16:43.692Z,76.30
2019-03-15T16:19:12.109Z,77.40
2019-03-15T16:21:40.349Z,76.40
2019-03-15T16:24:08.569Z,77.00
2019-03-15T16:26:36.515Z,77.50
2019-03-15T16:29:04.696Z,77.50
2019-03-15T16:31:33.422Z,76.70
2019-03-15T16:34:01.542Z,76.50
2019-03-15T16:36:29.856Z,77.50
2019-03-15T16:38:57.932Z,77.00
2019-03-15T16:41:26.392Z,77.00
2019-03-15T16:43:54.699Z,77.70
2019-03-15T16:46:22.820Z,77.70
2019-03-15T16:48:50.930Z,78.00
2019-03-15T16:51:19.968Z,78.20
2019-03-15T16:53:48.046Z,79.30
2019-03-15T16:56:16.034Z,78.50
2019-03-15T16:58:45.743Z,79.00
2019-03-15T17:01:13.613Z,78.90
2019-03-15T17:03:41.694Z,78.60
2019-03-15T17:06:09.819Z,78.00
2019-03-15T17:08:37.953Z,78.50
2019-03-15T17:11:05.910Z,78.30
2019-03-15T17:13:34.285Z,77.80
2019-03-15T17:16:02.325Z,78.10
2019-03-15T17:18:30.398Z,78.30
2019-03-15T17:20:58.575Z,78.70
2019-03-15T17:23:26.565Z,78.50
2019-03-15T17:28:30.533Z,79.10
2019-03-15T17:31:09.151Z,78.60
2019-03-15T17:33:28.429Z,78.80
2019-03-15T17:35:57.314Z,78.50
2019-03-15T17:38:25.405Z,78.90
2019-03-15T17:40:53.632Z,78.80
2019-03-15T17:43:22.294Z,78.30
2019-03-15T17:45:50.313Z,78.20
2019-03-15T17:48:18.456Z,78.80
2019-03-15T17:50:49.270Z,78.80
2019-03-15T17:53:17.467Z,79.20
2019-03-15T17:55:45.708Z,78.90
2019-03-15T17:58:13.685Z,79.90
2019-03-15T18:00:41.999Z,79.70
2019-03-15T18:03:20.557Z,79.70
2019-03-15T18:05:39.741Z,78.90
2019-03-15T18:08:07.748Z,79.00
2019-03-15T18:10:36.028Z,79.10
2019-03-15T18:13:04.212Z,79.40
2019-03-15T18:15:32.470Z,79.60
2019-03-15T18:18:00.857Z,78.90
2019-03-15T18:20:28.862Z,79.40
2019-03-15T18:22:57.560Z,79.40
2019-03-15T18:25:25.941Z,78.80
2019-03-15T18:27:55.101Z,79.80
2019-03-15T18:30:23.250Z,79.30
2019-03-15T18:32:51.525Z,79.50
2019-03-15T18:35:32.662Z,79.50
2019-03-15T18:37:49.396Z,80.30
2019-03-15T18:40:17.900Z,79.60
2019-03-15T18:42:46.264Z,79.30
2019-03-15T18:45:17.315Z,79.70
2019-03-15T18:47:46.323Z,80.00
2019-03-15T18:50:14.871Z,79.20
2019-03-15T18:52:43.568Z,79.80
2019-03-15T18:55:11.990Z,80.90
2019-03-15T18:57:39.948Z,80.30
2019-03-15T19:00:10.941Z,80.40
2019-03-15T19:02:39.318Z,79.90
2019-03-15T19:05:07.447Z,80.00
2019-03-15T19:07:35.383Z,79.60
2019-03-15T19:10:04.303Z,79.90
2019-03-15T19:12:33.501Z,79.90
2019-03-15T19:15:01.570Z,79.30
2019-03-15T19:17:31.036Z,79.80
2019-03-15T19:19:58.949Z,79.80
2019-03-15T19:22:28.220Z,80.00
2019-03-15T19:24:56.387Z,79.60
2019-03-15T19:27:24.933Z,79.30
2019-03-15T19:29:54.079Z,79.50
2019-03-15T19:32:22.674Z,80.10
2019-03-15T19:34:50.684Z,79.80
2019-03-15T19:37:19.239Z,80.40
2019-03-15T19:39:48.904Z,80.00
2019-03-15T19:42:16.846Z,79.50
2019-03-15T19:44:45.517Z,80.10
2019-03-15T19:47:14.233Z,80.10
2019-03-15T19:49:43.031Z,80.10
2019-03-15T19:52:11.219Z,80.20
2019-03-15T19:54:40.713Z,79.60
2019-03-15T19:57:09.446Z,80.10
2019-03-15T19:59:37.394Z,80.20
2019-03-15T20:02:05.588Z,80.30
2019-03-15T20:04:33.799Z,79.50
2019-03-15T20:07:02.647Z,80.70
2019-03-15T20:09:30.762Z,81.10
2019-03-15T20:11:58.784Z,80.00
2019-03-15T20:14:26.890Z,79.60
2019-03-15T20:16:55.369Z,80.10
2019-03-15T20:19:23.850Z,81.40
2019-03-15T20:21:52.142Z,80.60
2019-03-15T20:24:20.494Z,80.70
2019-03-15T20:26:48.623Z,80.50
2019-03-15T20:29:19.037Z,80.70
2019-03-15T20:31:47.161Z,80.40
2019-03-15T20:34:15.244Z,79.90
2019-03-15T20:36:43.519Z,80.40
2019-03-15T20:39:12.493Z,81.00
2019-03-15T20:41:41.304Z,81.00
2019-03-15T20:44:12.474Z,80.80
2019-03-15T20:46:40.504Z,80.20
2019-03-15T20:49:09.498Z,80.40
2019-03-15T20:51:37.586Z,81.00
2019-03-15T20:54:07.227Z,81.20
2019-03-15T20:56:35.753Z,81.00
2019-03-15T20:59:04.534Z,81.30
2019-03-15T21:01:32.473Z,80.80
2019-03-15T21:04:01.677Z,80.80
2019-03-15T21:06:30.498Z,80.70
2019-03-15T21:08:58.468Z,80.80
2019-03-15T21:11:26.515Z,80.90
2019-03-15T21:13:54.972Z,82.00
2019-03-15T21:16:23.341Z,80.70
2019-03-15T21:18:51.474Z,81.00
2019-03-15T21:21:19.611Z,81.60
2019-03-15T21:23:47.600Z,81.40
2019-03-15T21:26:15.933Z,81.70
2019-03-15T21:31:28.304Z,81.40
2019-03-15T21:33:56.476Z,80.70
2019-03-15T21:36:24.518Z,81.10
2019-03-15T21:38:53.002Z,81.10
2019-03-15T21:41:21.110Z,81.50
2019-03-15T21:43:49.213Z,81.60
2019-03-15T21:46:17.357Z,81.20
2019-03-15T21:48:45.943Z,81.80
2019-03-15T21:51:14.267Z,81.80
2019-03-15T21:53:42.249Z,81.60
2019-03-15T21:56:10.513Z,81.00
2019-03-15T21:58:38.480Z,81.20
2019-03-15T22:01:06.704Z,81.30
2019-03-15T22:03:35.144Z,81.50
2019-03-15T22:06:03.300Z,81.10
2019-03-15T22:08:31.321Z,81.20
2019-03-15T22:10:59.773Z,81.30
2019-03-15T22:13:29.989Z,81.40
2019-03-15T22:15:59.752Z,81.40
2019-03-15T22:18:27.784Z,81.40
2019-03-15T22:20:55.708Z,81.40
2019-03-15T22:23:24.078Z,81.80
2019-03-15T22:25:52.599Z,81.10
2019-03-15T22:28:21.321Z,81.70
2019-03-15T22:30:49.895Z,81.50
2019-03-15T22:33:20.978Z,81.40
2019-03-15T22:35:49.035Z,81.30
2019-03-15T22:38:26.173Z,82.20
